Time;durP1;ratioP1;P1;durP2;ratioP2;P2;SDS_P1;SDS_P2;PMS_P1;PMS_P2;Temp;Humidity;BMP_temperature;BMP_pressure;BME280_temperature;BME280_humidity;BME280_pressure;Samples;Min_cycle;Max_cycle;Signal;HPM_P1;HPM_P2
2020/12/16 00:00:02;;;;;;;101.65;83.87;;;20.10;48.80;;;;;;466058;59;21068;-24
2020/12/16 00:00:33;;;;;;;105.50;87.12;;;20.10;48.70;;;;;;513187;55;20973;-23
2020/12/16 00:01:06;;;;;;;103.15;85.50;;;20.10;48.70;;;;;;481839;55;21016;-24
2020/12/16 00:01:37;;;;;;;101.47;85.97;;;20.10;48.60;;;;;;466086;57;20988;-25
2020/12/16 00:02:08;;;;;;;102.53;86.12;;;20.10;48.50;;;;;;494931;55;20965;-24
2020/12/16 00:02:40;;;;;;;102.28;86.55;;;20.10;48.50;;;;;;513162;55;21314;-23
2020/12/16 00:03:11;;;;;;;103.47;85.00;;;20.10;48.50;;;;;;513166;55;21072;-25
2020/12/16 00:03:42;;;;;;;100.43;85.43;;;20.10;48.60;;;;;;492780;55;21016;-23
2020/12/16 00:04:13;;;;;;;103.72;86.75;;;20.20;48.50;;;;;;513123;55;20964;-22
2020/12/16 00:04:44;;;;;;;98.53;84.85;;;20.10;48.60;;;;;;513199;55;20924;-25
2020/12/16 00:05:15;;;;;;;104.25;87.18;;;20.10;49.20;;;;;;500593;55;21487;-23
2020/12/16 00:05:46;;;;;;;100.12;84.68;;;20.10;48.60;;;;;;493878;55;21012;-23
2020/12/16 00:06:17;;;;;;;97.18;82.03;;;20.10;48.80;;;;;;466088;59;20961;-24
2020/12/16 00:06:49;;;;;;;103.15;86.07;;;20.10;48.70;;;;;;513204;55;20948;-24
2020/12/16 00:07:20;;;;;;;101.30;84.68;;;20.10;48.60;;;;;;513269;55;21494;-24
2020/12/16 00:07:51;;;;;;;103.12;86.65;;;20.10;48.60;;;;;;467910;55;20964;-25
2020/12/16 00:08:22;;;;;;;98.25;82.97;;;20.10;48.50;;;;;;513244;55;20944;-24
2020/12/16 00:08:53;;;;;;;99.90;83.40;;;20.10;48.60;;;;;;513188;55;20940;-23
2020/12/16 00:09:24;;;;;;;100.80;83.87;;;20.10;48.50;;;;;;513230;55;20996;-23
2020/12/16 00:09:54;;;;;;;98.57;82.10;;;20.10;48.50;;;;;;513209;55;21377;-23
2020/12/16 00:10:25;;;;;;;100.65;84.43;;;20.10;48.70;;;;;;513173;55;20977;-23
2020/12/16 00:10:57;;;;;;;102.15;84.78;;;20.10;48.70;;;;;;466104;59;20964;-24
2020/12/16 00:11:27;;;;;;;102.38;84.32;;;20.10;48.60;;;;;;513174;55;20985;-24
2020/12/16 00:11:59;;;;;;;100.68;84.47;;;20.10;48.60;;;;;;466163;56;20932;-23
2020/12/16 00:12:30;;;;;;;102.75;86.25;;;20.10;48.40;;;;;;513212;55;20917;-23
2020/12/16 00:13:03;;;;;;;100.18;83.15;;;20.10;48.40;;;;;;490025;55;20971;-24
2020/12/16 00:13:34;;;;;;;98.97;86.32;;;20.10;48.60;;;;;;513223;55;20945;-24
2020/12/16 00:14:05;;;;;;;102.62;85.47;;;20.10;48.60;;;;;;513220;55;21009;-23
2020/12/16 00:14:36;;;;;;;100.47;84.87;;;20.10;48.40;;;;;;473553;55;21418;-25
2020/12/16 00:15:08;;;;;;;95.50;80.60;;;20.10;48.60;;;;;;465915;59;21055;-21
2020/12/16 00:15:39;;;;;;;100.00;84.93;;;20.10;48.70;;;;;;513116;55;21068;-25
2020/12/16 00:16:10;;;;;;;98.45;83.00;;;20.10;48.60;;;;;;488850;55;20956;-23
2020/12/16 00:16:40;;;;;;;101.47;83.75;;;20.10;48.60;;;;;;513170;55;20961;-23
2020/12/16 00:17:13;;;;;;;99.18;82.75;;;20.10;48.60;;;;;;466075;59;20949;-24
2020/12/16 00:17:44;;;;;;;101.22;83.00;;;20.10;48.50;;;;;;466018;57;20956;-24
2020/12/16 00:18:15;;;;;;;96.87;83.62;;;20.10;48.60;;;;;;513003;55;21040;-24
2020/12/16 00:18:46;;;;;;;99.95;83.35;;;20.10;48.60;;;;;;487079;55;20920;-23
2020/12/16 00:19:16;;;;;;;102.78;85.82;;;20.10;48.40;;;;;;502619;55;20992;-24
2020/12/16 00:19:47;;;;;;;100.97;84.47;;;20.10;48.40;;;;;;513207;55;20980;-24
2020/12/16 00:20:18;;;;;;;97.55;83.00;;;20.10;48.30;;;;;;513177;55;21450;-24
2020/12/16 00:20:49;;;;;;;100.45;82.47;;;20.10;48.50;;;;;;513191;55;21362;-25
2020/12/16 00:21:24;;;;;;;96.72;82.90;;;20.10;48.40;;;;;;513192;55;21032;-23
2020/12/16 00:21:58;;;;;;;99.97;84.20;;;20.10;48.50;;;;;;513169;55;21024;-24
2020/12/16 00:22:37;;;;;;;97.90;84.25;;;20.10;48.70;;;;;;497278;55;20977;-26
2020/12/16 00:23:09;;;;;;;96.60;80.55;;;20.10;48.70;;;;;;513230;55;21076;-22
2020/12/16 00:23:40;;;;;;;99.50;82.57;;;20.10;48.70;;;;;;513200;55;20969;-25
2020/12/16 00:24:11;;;;;;;97.22;80.60;;;20.10;48.60;;;;;;513109;55;20964;-29
2020/12/16 00:24:42;;;;;;;93.55;80.22;;;20.10;48.40;;;;;;466094;59;20996;-24
2020/12/16 00:25:13;;;;;;;98.03;84.45;;;20.10;48.50;;;;;;513164;55;21443;-23
2020/12/16 00:25:44;;;;;;;99.75;81.40;;;20.10;48.50;;;;;;513205;55;20932;-23
2020/12/16 00:26:15;;;;;;;95.60;80.07;;;20.10;48.60;;;;;;513242;55;20917;-24
2020/12/16 00:26:46;;;;;;;97.10;82.53;;;20.10;48.60;;;;;;513222;55;21014;-26
2020/12/16 00:27:17;;;;;;;99.72;82.80;;;20.10;48.40;;;;;;513153;55;21008;-25
2020/12/16 00:27:48;;;;;;;98.12;82.25;;;20.10;48.40;;;;;;513130;55;21019;-23
2020/12/16 00:28:19;;;;;;;96.32;81.53;;;20.10;48.40;;;;;;466040;59;21027;-24
2020/12/16 00:28:51;;;;;;;101.78;86.18;;;20.10;48.50;;;;;;513234;55;20925;-24
2020/12/16 00:29:22;;;;;;;103.47;84.30;;;20.10;48.60;;;;;;486969;55;20983;-25
2020/12/16 00:29:53;;;;;;;97.05;82.47;;;20.10;48.50;;;;;;506462;55;20944;-24
2020/12/16 00:30:24;;;;;;;97.43;83.50;;;20.10;48.50;;;;;;513225;55;20984;-24
2020/12/16 00:30:55;;;;;;;99.95;82.95;;;20.10;48.60;;;;;;513234;55;20960;-24
2020/12/16 00:31:26;;;;;;;98.70;82.68;;;20.10;48.50;;;;;;513136;55;21430;-24
2020/12/16 00:31:57;;;;;;;95.28;81.18;;;20.10;48.50;;;;;;513190;55;20936;-27
2020/12/16 00:32:27;;;;;;;98.35;81.95;;;20.10;48.40;;;;;;499699;55;20945;-26
2020/12/16 00:32:58;;;;;;;96.45;82.43;;;20.10;48.40;;;;;;482978;55;20952;-26
2020/12/16 00:33:31;;;;;;;97.75;81.15;;;20.10;48.40;;;;;;513177;55;21466;-24
2020/12/16 00:34:02;;;;;;;98.62;81.12;;;20.10;48.40;;;;;;480155;55;21032;-33
2020/12/16 00:34:32;;;;;;;101.47;83.32;;;20.10;48.40;;;;;;513246;55;20963;-25
2020/12/16 00:35:08;;;;;;;96.93;82.80;;;20.10;48.30;;;;;;466192;56;20976;-28
2020/12/16 00:35:39;;;;;;;95.30;82.03;;;20.10;48.50;;;;;;513122;55;21016;-26
2020/12/16 00:36:09;;;;;;;97.55;81.85;;;20.10;48.30;;;;;;506577;55;21414;-24
2020/12/16 00:36:41;;;;;;;97.85;82.28;;;20.10;48.60;;;;;;513175;55;21394;-29
2020/12/16 00:37:12;;;;;;;91.72;76.60;;;20.10;48.40;;;;;;513212;55;21202;-27
2020/12/16 00:37:43;;;;;;;96.68;81.60;;;20.10;48.40;;;;;;513177;55;20964;-29
2020/12/16 00:38:14;;;;;;;96.47;81.70;;;20.10;48.30;;;;;;498596;55;21056;-27
2020/12/16 00:38:46;;;;;;;95.28;79.50;;;20.10;48.40;;;;;;513169;55;21021;-24
2020/12/16 00:39:17;;;;;;;98.55;81.03;;;20.10;48.30;;;;;;466292;55;20941;-24
2020/12/16 00:39:48;;;;;;;96.78;80.53;;;20.10;48.30;;;;;;483753;55;20984;-24
2020/12/16 00:40:19;;;;;;;97.12;81.82;;;20.10;48.30;;;;;;513264;55;20905;-27
2020/12/16 00:40:50;;;;;;;97.37;81.85;;;20.10;48.30;;;;;;513198;55;20973;-24
2020/12/16 00:41:20;;;;;;;95.18;80.10;;;20.10;48.40;;;;;;474053;55;21063;-21
2020/12/16 00:41:51;;;;;;;97.78;82.90;;;20.10;48.60;;;;;;513151;55;21024;-23
2020/12/16 00:42:22;;;;;;;93.00;77.68;;;20.10;48.50;;;;;;513230;55;20932;-25
2020/12/16 00:42:53;;;;;;;97.85;80.62;;;20.10;49.00;;;;;;513186;55;21359;-30
2020/12/16 00:43:24;;;;;;;96.05;80.38;;;20.10;48.30;;;;;;513201;55;21355;-27
2020/12/16 00:43:55;;;;;;;97.53;81.30;;;20.10;48.50;;;;;;466091;59;21371;-25
2020/12/16 00:44:26;;;;;;;94.80;81.68;;;20.10;48.40;;;;;;466083;59;21370;-25
2020/12/16 00:44:56;;;;;;;90.60;76.70;;;20.10;48.40;;;;;;513182;55;21470;-24
2020/12/16 00:45:27;;;;;;;93.65;78.85;;;20.10;48.30;;;;;;513141;55;21443;-24
2020/12/16 00:45:58;;;;;;;96.65;80.90;;;20.10;48.30;;;;;;513171;55;21049;-26
2020/12/16 00:46:29;;;;;;;97.03;81.43;;;20.10;48.40;;;;;;513183;55;20953;-27
2020/12/16 00:47:01;;;;;;;94.28;80.90;;;20.10;48.50;;;;;;496028;55;20929;-24
2020/12/16 00:47:35;;;;;;;97.40;82.30;;;20.10;48.60;;;;;;513218;55;20928;-25
2020/12/16 00:48:06;;;;;;;96.55;82.55;;;20.10;48.40;;;;;;476486;55;20979;-24
2020/12/16 00:48:37;;;;;;;92.60;77.43;;;20.10;48.40;;;;;;513177;55;21056;-25
2020/12/16 00:49:08;;;;;;;94.62;78.78;;;20.10;48.50;;;;;;513184;55;21007;-24
2020/12/16 00:49:41;;;;;;;94.07;80.62;;;20.10;48.40;;;;;;466074;57;20956;-24
2020/12/16 00:50:12;;;;;;;95.43;81.10;;;20.10;48.50;;;;;;513207;55;20909;-26
2020/12/16 00:50:43;;;;;;;98.15;82.10;;;20.10;48.50;;;;;;513225;55;21024;-24
2020/12/16 00:51:14;;;;;;;95.93;81.53;;;20.10;48.60;;;;;;513208;55;20945;-24
2020/12/16 00:51:45;;;;;;;97.12;80.20;;;20.10;48.50;;;;;;513215;55;21406;-24
2020/12/16 00:52:17;;;;;;;97.12;80.80;;;20.10;48.40;;;;;;513155;55;21028;-24
2020/12/16 00:52:49;;;;;;;94.37;81.00;;;20.10;48.30;;;;;;513211;55;20985;-24
2020/12/16 00:53:19;;;;;;;95.60;80.80;;;20.10;48.30;;;;;;466086;59;20945;-27
2020/12/16 00:53:50;;;;;;;91.57;77.47;;;20.10;48.30;;;;;;513189;55;20984;-24
2020/12/16 00:54:21;;;;;;;96.18;79.32;;;20.10;48.40;;;;;;513184;55;21013;-24
2020/12/16 00:54:52;;;;;;;91.78;75.80;;;20.10;48.50;;;;;;513163;55;21566;-24
2020/12/16 00:55:23;;;;;;;93.07;78.30;;;20.10;48.40;;;;;;508451;55;20976;-22
2020/12/16 00:55:54;;;;;;;94.40;77.70;;;20.10;48.30;;;;;;465972;59;21055;-24
2020/12/16 00:56:24;;;;;;;96.78;81.20;;;20.10;48.30;;;;;;512994;55;20972;-26
2020/12/16 00:56:55;;;;;;;93.47;76.85;;;20.10;48.50;;;;;;487415;55;21008;-24
2020/12/16 00:57:26;;;;;;;91.53;77.65;;;20.10;48.50;;;;;;466026;59;20996;-25
2020/12/16 00:57:58;;;;;;;92.78;78.85;;;20.10;48.30;;;;;;513152;55;20917;-26
2020/12/16 00:58:29;;;;;;;96.05;81.25;;;20.10;48.20;;;;;;513048;55;21033;-24
2020/12/16 00:58:59;;;;;;;94.70;78.65;;;20.10;48.20;;;;;;513224;55;21012;-24
2020/12/16 00:59:30;;;;;;;94.07;81.00;;;20.10;48.20;;;;;;511024;55;20980;-25
2020/12/16 01:00:06;;;;;;;98.30;81.25;;;20.10;48.30;;;;;;512238;55;21038;-25
2020/12/16 01:00:37;;;;;;;95.18;79.57;;;20.10;48.40;;;;;;513192;55;20928;-24
2020/12/16 01:01:08;;;;;;;94.97;79.30;;;20.10;48.30;;;;;;466071;59;20944;-26
2020/12/16 01:01:39;;;;;;;91.97;76.05;;;20.10;48.20;;;;;;465972;59;20976;-25
2020/12/16 01:02:09;;;;;;;92.88;79.55;;;20.10;48.30;;;;;;477483;55;20976;-24
2020/12/16 01:02:42;;;;;;;96.70;79.35;;;20.10;48.50;;;;;;466075;59;21502;-23
2020/12/16 01:03:13;;;;;;;95.03;79.32;;;20.10;48.40;;;;;;466183;56;21005;-26
2020/12/16 01:03:43;;;;;;;91.72;78.20;;;20.10;48.40;;;;;;513144;55;20921;-25
2020/12/16 01:04:14;;;;;;;91.75;78.15;;;20.10;48.30;;;;;;513169;55;20932;-24
2020/12/16 01:04:45;;;;;;;91.93;76.10;;;20.10;48.30;;;;;;513205;55;20928;-26
2020/12/16 01:05:18;;;;;;;94.70;80.85;;;20.10;48.30;;;;;;484949;55;20988;-23
2020/12/16 01:05:48;;;;;;;96.37;79.70;;;20.10;48.40;;;;;;466140;59;21000;-25
2020/12/16 01:06:19;;;;;;;92.78;76.30;;;20.10;48.40;;;;;;466061;57;21027;-26
2020/12/16 01:06:50;;;;;;;91.97;76.53;;;20.10;48.30;;;;;;513218;55;20980;-26
2020/12/16 01:07:21;;;;;;;93.12;76.93;;;20.10;48.30;;;;;;513224;55;20892;-24
2020/12/16 01:07:52;;;;;;;94.05;79.03;;;20.10;48.10;;;;;;513215;55;20908;-23
2020/12/16 01:08:23;;;;;;;93.37;80.12;;;20.10;48.10;;;;;;489344;55;20921;-22
2020/12/16 01:08:53;;;;;;;91.70;77.50;;;20.10;48.10;;;;;;483847;55;20933;-25
2020/12/16 01:09:24;;;;;;;90.50;76.97;;;20.10;48.30;;;;;;466145;59;20972;-25
2020/12/16 01:09:55;;;;;;;91.40;76.82;;;20.10;48.20;;;;;;513292;55;20957;-24
2020/12/16 01:10:26;;;;;;;88.95;74.82;;;20.10;48.30;;;;;;513181;55;21434;-23
2020/12/16 01:10:58;;;;;;;93.30;77.78;;;20.10;48.40;;;;;;513212;55;20909;-25
2020/12/16 01:11:28;;;;;;;90.00;75.78;;;20.10;48.40;;;;;;513213;55;20921;-23
2020/12/16 01:11:59;;;;;;;94.65;78.12;;;20.10;48.40;;;;;;513241;55;20992;-24
2020/12/16 01:12:30;;;;;;;95.50;79.25;;;20.10;48.30;;;;;;513203;55;20948;-26
2020/12/16 01:13:02;;;;;;;93.65;77.00;;;20.10;48.30;;;;;;513248;55;21407;-23
2020/12/16 01:13:33;;;;;;;94.47;79.25;;;20.10;48.40;;;;;;513210;55;21076;-25
2020/12/16 01:14:05;;;;;;;89.30;75.82;;;20.10;48.40;;;;;;513205;55;20921;-22
2020/12/16 01:14:36;;;;;;;92.32;77.62;;;20.10;48.30;;;;;;486229;55;20916;-26
2020/12/16 01:15:16;;;;;;;93.12;78.68;;;20.10;48.20;;;;;;466225;56;20944;-26
2020/12/16 01:15:47;;;;;;;89.05;74.80;;;20.10;48.20;;;;;;513186;55;21024;-24
2020/12/16 01:16:17;;;;;;;91.37;77.85;;;20.10;48.30;;;;;;508905;55;21028;-23
2020/12/16 01:16:49;;;;;;;91.82;77.22;;;20.10;48.30;;;;;;466007;59;21494;-28
2020/12/16 01:17:20;;;;;;;88.65;76.07;;;20.10;48.40;;;;;;466146;59;21422;-22
2020/12/16 01:17:50;;;;;;;92.35;76.80;;;20.10;48.40;;;;;;479227;55;21394;-23
2020/12/16 01:18:21;;;;;;;91.85;77.03;;;20.10;48.20;;;;;;513095;55;21466;-24
2020/12/16 01:18:52;;;;;;;90.35;75.30;;;20.10;48.20;;;;;;513193;55;20918;-24
2020/12/16 01:19:23;;;;;;;91.50;75.95;;;20.10;48.20;;;;;;513200;55;20956;-25
2020/12/16 01:19:54;;;;;;;95.10;78.65;;;20.10;48.20;;;;;;489899;55;20976;-24
2020/12/16 01:20:25;;;;;;;90.30;74.53;;;20.10;48.10;;;;;;488482;55;21466;-27
2020/12/16 01:20:55;;;;;;;91.70;77.90;;;20.10;48.10;;;;;;466051;59;21379;-23
2020/12/16 01:21:26;;;;;;;92.53;77.90;;;20.10;48.10;;;;;;513266;55;20972;-24
2020/12/16 01:21:59;;;;;;;94.40;79.72;;;20.10;48.30;;;;;;466114;59;20937;-24
2020/12/16 01:22:29;;;;;;;89.93;75.80;;;20.10;48.10;;;;;;513238;55;20921;-23
2020/12/16 01:23:00;;;;;;;85.40;73.78;;;20.10;48.30;;;;;;474332;55;20984;-24
2020/12/16 01:23:31;;;;;;;91.63;75.93;;;20.10;48.40;;;;;;513232;55;20996;-23
2020/12/16 01:24:05;;;;;;;90.18;75.25;;;20.10;48.30;;;;;;466106;59;20972;-24
2020/12/16 01:24:36;;;;;;;92.88;76.35;;;20.10;48.30;;;;;;498272;55;20924;-24
2020/12/16 01:25:08;;;;;;;93.78;79.03;;;20.10;48.30;;;;;;513253;55;21047;-24
2020/12/16 01:25:39;;;;;;;92.60;76.78;;;20.10;48.30;;;;;;513206;55;20925;-24
2020/12/16 01:26:10;;;;;;;91.63;76.32;;;20.10;48.10;;;;;;513185;55;21025;-26
2020/12/16 01:26:50;;;;;;;87.85;73.55;;;20.10;48.10;;;;;;508547;55;20964;-30
2020/12/16 01:27:20;;;;;;;;;;;20.10;48.00;;;;;;516952;55;20908;-25
2020/12/16 01:27:59;;;;;;;92.88;75.40;;;20.10;48.10;;;;;;466173;59;20113;-24
2020/12/16 01:28:29;;;;;;;91.37;76.22;;;20.10;48.30;;;;;;512153;55;20976;-24
2020/12/16 01:29:00;;;;;;;92.22;76.10;;;20.10;48.20;;;;;;495306;55;21086;-27
2020/12/16 01:29:31;;;;;;;91.05;76.55;;;20.10;48.10;;;;;;466156;59;20945;-24
2020/12/16 01:30:07;;;;;;;91.45;75.18;;;20.10;48.10;;;;;;466144;59;21096;-22
2020/12/16 01:30:38;;;;;;;88.65;75.87;;;20.10;48.20;;;;;;513183;55;21039;-23
2020/12/16 01:31:09;;;;;;;93.93;76.97;;;20.10;48.20;;;;;;466110;59;20992;-24
2020/12/16 01:31:41;;;;;;;96.63;76.28;;;20.10;48.20;;;;;;474777;55;21474;-24
2020/12/16 01:32:15;;;;;;;88.93;74.57;;;20.10;48.20;;;;;;481544;55;20996;-24
2020/12/16 01:32:46;;;;;;;90.15;73.62;;;20.10;48.30;;;;;;499096;55;20912;-24
2020/12/16 01:33:17;;;;;;;91.63;75.45;;;20.10;48.30;;;;;;513205;55;20993;-24
2020/12/16 01:33:48;;;;;;;88.22;73.43;;;20.10;48.30;;;;;;487206;55;20913;-32
2020/12/16 01:34:21;;;;;;;86.72;73.20;;;20.10;48.20;;;;;;513217;55;21009;-24
2020/12/16 01:34:54;;;;;;;92.07;76.90;;;20.10;48.20;;;;;;513269;55;21007;-26
2020/12/16 01:35:26;;;;;;;90.80;75.28;;;20.10;48.20;;;;;;513226;55;21000;-24
2020/12/16 01:35:57;;;;;;;93.53;75.85;;;20.10;48.20;;;;;;513065;55;20949;-29
2020/12/16 01:36:27;;;;;;;87.05;72.55;;;20.10;48.20;;;;;;465953;59;21000;-24
2020/12/16 01:36:58;;;;;;;88.50;74.60;;;20.10;48.20;;;;;;513190;55;20965;-25
2020/12/16 01:37:29;;;;;;;92.05;76.85;;;20.10;48.10;;;;;;513207;55;21008;-25
2020/12/16 01:38:00;;;;;;;90.05;73.10;;;20.10;48.00;;;;;;513234;55;20980;-22
2020/12/16 01:38:31;;;;;;;90.05;74.22;;;20.10;48.00;;;;;;512982;55;20988;-24
2020/12/16 01:39:02;;;;;;;91.80;75.43;;;20.10;48.00;;;;;;466121;59;20959;-26
2020/12/16 01:39:33;;;;;;;87.78;74.78;;;20.10;48.00;;;;;;466134;59;20917;-25
2020/12/16 01:40:08;;;;;;;87.68;74.93;;;20.10;48.10;;;;;;513218;55;20981;-30
2020/12/16 01:40:39;;;;;;;87.93;75.35;;;20.10;48.00;;;;;;513217;55;21008;-25
2020/12/16 01:41:10;;;;;;;90.22;75.82;;;20.10;48.10;;;;;;513172;55;20945;-24
2020/12/16 01:41:43;;;;;;;86.07;72.25;;;20.10;48.20;;;;;;513206;55;20960;-24
2020/12/16 01:42:14;;;;;;;91.53;74.75;;;20.10;48.20;;;;;;513182;55;20980;-23
2020/12/16 01:42:45;;;;;;;90.07;76.25;;;20.10;48.10;;;;;;513197;55;21006;-25
2020/12/16 01:43:16;;;;;;;88.82;75.03;;;20.10;48.10;;;;;;466129;59;20981;-24
2020/12/16 01:43:47;;;;;;;88.70;73.50;;;20.10;48.00;;;;;;513277;55;20908;-25
2020/12/16 01:44:22;;;;;;;90.45;74.57;;;20.10;48.10;;;;;;513218;55;21020;-29
2020/12/16 01:44:53;;;;;;;91.45;74.12;;;20.10;48.10;;;;;;466019;59;20964;-23
2020/12/16 01:45:25;;;;;;;88.07;73.65;;;20.10;48.30;;;;;;513197;55;20924;-26
2020/12/16 01:45:55;;;;;;;86.85;73.12;;;20.10;48.10;;;;;;513227;55;20921;-26
2020/12/16 01:46:28;;;;;;;85.87;71.47;;;20.10;48.10;;;;;;492780;55;20917;-24
2020/12/16 01:47:01;;;;;;;88.68;75.25;;;20.10;48.00;;;;;;513276;55;20953;-23
2020/12/16 01:47:32;;;;;;;88.18;73.50;;;20.10;48.10;;;;;;466293;55;20957;-25
2020/12/16 01:48:03;;;;;;;91.47;75.75;;;20.10;48.20;;;;;;466078;59;21091;-24
2020/12/16 01:48:34;;;;;;;90.90;74.45;;;20.10;48.20;;;;;;513243;55;20969;-24
2020/12/16 01:49:05;;;;;;;90.68;75.82;;;20.10;48.10;;;;;;513209;55;20912;-25
2020/12/16 01:49:36;;;;;;;88.70;73.05;;;20.10;48.10;;;;;;513214;55;20984;-24
2020/12/16 01:50:07;;;;;;;93.75;76.65;;;20.10;48.00;;;;;;513253;55;20913;-26
2020/12/16 01:50:38;;;;;;;92.05;74.70;;;20.10;48.00;;;;;;513200;55;20996;-24
2020/12/16 01:51:16;;;;;;;87.68;73.35;;;20.10;48.30;;;;;;513210;55;20961;-24
2020/12/16 01:51:53;;;;;;;89.18;73.97;;;20.10;48.20;;;;;;466299;55;20988;-25
2020/12/16 01:52:27;;;;;;;91.40;75.18;;;20.10;48.00;;;;;;513253;55;20905;-22
2020/12/16 01:52:59;;;;;;;87.00;73.85;;;20.10;48.00;;;;;;513261;55;21007;-24
2020/12/16 01:53:33;;;;;;;86.10;72.72;;;20.10;48.10;;;;;;513192;55;20944;-23
2020/12/16 01:54:07;;;;;;;87.60;73.97;;;20.10;48.20;;;;;;466096;59;21021;-24
2020/12/16 01:54:39;;;;;;;88.60;72.40;;;20.10;48.10;;;;;;513278;55;21022;-26
2020/12/16 01:55:11;;;;;;;89.30;75.87;;;20.10;48.10;;;;;;513281;55;20916;-24
2020/12/16 01:55:44;;;;;;;86.97;71.68;;;20.10;48.10;;;;;;511511;55;21035;-26
2020/12/16 01:56:16;;;;;;;89.43;76.78;;;20.10;48.20;;;;;;477253;55;20964;-26
2020/12/16 01:56:50;;;;;;;90.65;74.37;;;20.10;48.00;;;;;;476673;55;21531;-25
2020/12/16 01:57:24;;;;;;;88.37;72.53;;;20.10;48.10;;;;;;490184;55;20992;-30
2020/12/16 01:58:05;;;;;;;91.60;75.35;;;20.10;48.80;;;;;;476607;55;20968;-25
2020/12/16 01:58:37;;;;;;;86.53;72.70;;;20.10;48.20;;;;;;505414;55;21027;-25
2020/12/16 01:59:12;;;;;;;86.05;70.37;;;20.10;48.20;;;;;;513215;55;21032;-25
2020/12/16 01:59:46;;;;;;;86.93;71.85;;;20.10;48.10;;;;;;513264;55;21040;-25
2020/12/16 02:00:17;;;;;;;89.40;74.85;;;20.10;48.00;;;;;;466138;59;21004;-24
2020/12/16 02:00:49;;;;;;;87.82;72.78;;;20.10;48.00;;;;;;513260;55;20933;-24
2020/12/16 02:01:23;;;;;;;87.40;72.97;;;20.10;48.10;;;;;;513223;55;20925;-24
2020/12/16 02:01:55;;;;;;;88.22;72.55;;;20.10;47.90;;;;;;487514;55;20973;-25
2020/12/16 02:02:29;;;;;;;87.20;72.32;;;20.10;47.90;;;;;;502308;55;21146;-26
2020/12/16 02:03:04;;;;;;;84.45;72.03;;;20.10;47.90;;;;;;513242;55;20964;-24
2020/12/16 02:03:38;;;;;;;89.50;74.00;;;20.10;48.00;;;;;;513209;55;20920;-28
2020/12/16 02:04:12;;;;;;;85.93;71.10;;;20.10;48.10;;;;;;513172;55;20921;-24
2020/12/16 02:04:46;;;;;;;84.55;72.00;;;20.10;48.10;;;;;;513184;55;20992;-23
2020/12/16 02:05:19;;;;;;;90.78;75.05;;;20.10;48.00;;;;;;513185;55;20948;-25
2020/12/16 02:05:54;;;;;;;89.90;73.45;;;20.10;47.90;;;;;;501370;55;20929;-25
2020/12/16 02:06:29;;;;;;;86.45;73.35;;;20.10;47.90;;;;;;513215;55;20897;-27
2020/12/16 02:07:06;;;;;;;87.95;72.18;;;20.10;48.00;;;;;;495482;55;21028;-25
2020/12/16 02:07:37;;;;;;;88.68;74.30;;;20.10;48.10;;;;;;501079;55;21043;-25
2020/12/16 02:08:10;;;;;;;85.57;71.72;;;20.10;48.10;;;;;;513206;55;20956;-25
2020/12/16 02:08:45;;;;;;;88.53;73.85;;;20.10;48.00;;;;;;513264;55;20917;-25
2020/12/16 02:09:18;;;;;;;92.82;76.70;;;20.10;48.00;;;;;;466098;59;21030;-24
2020/12/16 02:09:49;;;;;;;84.50;70.30;;;20.00;48.00;;;;;;513216;55;20965;-23
2020/12/16 02:10:20;;;;;;;87.53;72.45;;;20.10;47.90;;;;;;513222;55;20925;-23
2020/12/16 02:10:53;;;;;;;84.65;71.25;;;20.10;47.80;;;;;;513250;55;20960;-22
2020/12/16 02:11:24;;;;;;;87.85;71.95;;;20.00;47.80;;;;;;466151;59;21386;-23
2020/12/16 02:11:55;;;;;;;85.50;72.12;;;20.10;47.70;;;;;;513231;55;21359;-24
2020/12/16 02:12:32;;;;;;;86.60;71.30;;;20.10;48.00;;;;;;513237;55;21458;-23
2020/12/16 02:13:06;;;;;;;87.93;73.10;;;20.10;48.00;;;;;;513269;55;21000;-23
2020/12/16 02:13:37;;;;;;;82.55;69.12;;;20.10;48.00;;;;;;513301;55;20905;-24
2020/12/16 02:14:09;;;;;;;89.13;73.35;;;20.10;48.00;;;;;;490196;55;20976;-23
2020/12/16 02:14:41;;;;;;;88.30;73.10;;;20.10;48.00;;;;;;513291;55;21419;-25
2020/12/16 02:15:12;;;;;;;87.15;73.18;;;20.10;48.00;;;;;;513244;55;20972;-26
2020/12/16 02:15:43;;;;;;;83.12;69.00;;;20.10;48.10;;;;;;506813;55;21107;-22
2020/12/16 02:16:14;;;;;;;84.97;71.05;;;20.10;48.10;;;;;;466017;59;20952;-24
2020/12/16 02:16:44;;;;;;;85.45;70.75;;;20.10;48.00;;;;;;465956;59;20976;-23
2020/12/16 02:17:16;;;;;;;88.57;72.82;;;20.10;47.90;;;;;;513213;55;20968;-23
2020/12/16 02:17:49;;;;;;;82.55;70.40;;;20.10;47.80;;;;;;485264;55;20913;-24
2020/12/16 02:18:20;;;;;;;85.45;70.37;;;20.10;47.90;;;;;;513276;55;21016;-24
2020/12/16 02:18:52;;;;;;;87.47;71.20;;;20.10;48.00;;;;;;471967;55;21000;-23
2020/12/16 02:19:27;;;;;;;88.78;73.70;;;20.10;47.90;;;;;;513240;55;21391;-23
2020/12/16 02:19:59;;;;;;;83.85;71.07;;;20.00;47.90;;;;;;466139;59;20992;-21
2020/12/16 02:20:30;;;;;;;85.35;69.22;;;20.10;48.00;;;;;;466083;59;20995;-22
2020/12/16 02:21:02;;;;;;;88.28;72.55;;;20.10;48.20;;;;;;513175;55;21076;-23
2020/12/16 02:21:36;;;;;;;87.22;71.45;;;20.10;48.00;;;;;;506630;55;20967;-25
2020/12/16 02:22:12;;;;;;;83.55;70.60;;;20.10;47.90;;;;;;513233;55;20945;-24
2020/12/16 02:22:48;;;;;;;85.97;70.78;;;20.10;48.10;;;;;;491192;55;20921;-25
2020/12/16 02:23:26;;;;;;;87.93;71.90;;;20.10;48.10;;;;;;513264;55;20953;-23
2020/12/16 02:24:08;;;;;;;84.43;69.50;;;20.10;48.10;;;;;;513252;55;20980;-25
2020/12/16 02:24:41;;;;;;;82.88;67.80;;;20.10;47.90;;;;;;513197;55;20984;-24
2020/12/16 02:25:11;;;;;;;85.53;70.10;;;20.10;47.80;;;;;;513244;55;20960;-23
2020/12/16 02:25:43;;;;;;;85.05;71.60;;;20.10;47.80;;;;;;513187;55;21024;-23
2020/12/16 02:26:14;;;;;;;88.07;72.12;;;20.00;47.70;;;;;;466178;59;20944;-22
2020/12/16 02:26:45;;;;;;;88.22;72.95;;;20.10;47.80;;;;;;513266;55;20924;-30
2020/12/16 02:27:16;;;;;;;84.53;70.75;;;20.10;47.80;;;;;;513240;55;20921;-24
2020/12/16 02:27:47;;;;;;;84.65;70.32;;;20.10;48.00;;;;;;466152;59;20933;-24
2020/12/16 02:28:18;;;;;;;87.97;71.05;;;20.10;48.10;;;;;;466063;59;20968;-23
2020/12/16 02:28:51;;;;;;;82.68;68.00;;;20.10;47.90;;;;;;466131;59;21015;-25
2020/12/16 02:29:26;;;;;;;81.60;68.32;;;20.10;47.90;;;;;;513235;55;20941;-24
2020/12/16 02:29:57;;;;;;;83.62;68.53;;;20.10;47.90;;;;;;513239;55;20984;-24
2020/12/16 02:30:28;;;;;;;84.87;70.07;;;20.10;48.00;;;;;;513181;55;21008;-23
2020/12/16 02:30:59;;;;;;;88.35;72.10;;;20.10;48.00;;;;;;513229;55;21028;-22
2020/12/16 02:31:33;;;;;;;82.65;69.55;;;20.00;47.80;;;;;;513198;55;20968;-23
2020/12/16 02:32:05;;;;;;;88.32;71.75;;;20.10;47.80;;;;;;509628;55;21072;-24
2020/12/16 02:32:36;;;;;;;87.47;73.07;;;20.10;47.80;;;;;;513222;55;21016;-24
2020/12/16 02:33:07;;;;;;;83.03;69.57;;;20.10;47.90;;;;;;466109;59;21462;-25
2020/12/16 02:33:38;;;;;;;83.55;68.82;;;20.10;47.90;;;;;;466134;59;20996;-23
2020/12/16 02:34:09;;;;;;;87.25;71.68;;;20.10;48.00;;;;;;513196;55;21021;-24
2020/12/16 02:34:40;;;;;;;85.18;70.80;;;20.10;48.00;;;;;;513208;55;21016;-23
2020/12/16 02:35:11;;;;;;;83.00;71.20;;;20.10;48.00;;;;;;509925;55;20956;-25
2020/12/16 02:35:42;;;;;;;87.20;73.32;;;20.10;47.90;;;;;;466047;59;20977;-26
2020/12/16 02:36:13;;;;;;;86.15;70.32;;;20.10;47.80;;;;;;513028;55;20980;-28
2020/12/16 02:36:43;;;;;;;87.95;71.43;;;20.10;47.90;;;;;;495544;55;20933;-22
2020/12/16 02:37:14;;;;;;;85.65;68.90;;;20.10;48.00;;;;;;489105;55;20972;-26
2020/12/16 02:37:45;;;;;;;81.85;68.50;;;20.10;48.00;;;;;;513221;55;20917;-24
2020/12/16 02:38:16;;;;;;;83.90;69.43;;;20.10;48.00;;;;;;513202;55;21016;-25
2020/12/16 02:38:47;;;;;;;87.55;70.55;;;20.10;48.00;;;;;;465967;59;21028;-25
2020/12/16 02:39:18;;;;;;;83.90;68.68;;;20.10;47.90;;;;;;466127;59;21431;-24
2020/12/16 02:39:50;;;;;;;81.32;66.90;;;20.10;48.00;;;;;;513241;55;20928;-27
2020/12/16 02:40:21;;;;;;;78.93;65.20;;;20.10;47.90;;;;;;499153;55;20952;-24
2020/12/16 02:40:52;;;;;;;79.15;65.53;;;20.10;47.70;;;;;;513205;55;20976;-25
2020/12/16 02:41:23;;;;;;;82.12;69.25;;;20.10;47.70;;;;;;466147;59;20996;-24
2020/12/16 02:42:01;;;;;;;84.13;68.30;;;20.10;47.80;;;;;;466118;59;21016;-25
2020/12/16 02:42:33;;;;;;;82.97;69.20;;;20.10;47.80;;;;;;513241;55;20932;-27
2020/12/16 02:43:04;;;;;;;85.28;71.05;;;20.10;47.80;;;;;;513098;55;21020;-24